CDT,Max TemperatureF,Mean TemperatureF,Min TemperatureF,Max Dew PointF,MeanDew PointF,Min DewpointF,Max Humidity, Mean Humidity, Min Humidity, Max Sea Level PressureIn, Mean Sea Level PressureIn, Min Sea Level PressureIn, Max VisibilityMiles, Mean VisibilityMiles, Min VisibilityMiles, Max Wind SpeedMPH, Mean Wind SpeedMPH, Max Gust SpeedMPH,PrecipitationIn, CloudCover, Events, WindDirDegrees
2013-9-1,91,79,66,71,64,52,87,59,30,29.99,29.87,29.74,10,10,10,28,10,35,T,1,,3
2013-9-2,86,73,59,60,58,55,84,61,37,30.09,30.03,29.99,10,10,10,12,3,15,0.00,0,,25
2013-9-3,90,74,58,61,57,54,87,61,34,30.09,30.04,29.99,10,10,10,12,4,15,0.00,0,,148
2013-9-4,91,76,61,61,58,55,84,58,32,30.14,30.07,30.03,10,10,10,15,7,18,0.00,0,,143
2013-9-5,95,80,64,65,62,59,87,60,33,30.14,30.09,30.04,10,10,10,16,8,20,0.00,0,,136
2013-9-6,99,84,68,65,63,60,78,54,29,30.07,29.99,29.90,10,10,10,17,10,22,0.00,0,,171
2013-9-7,104,88,71,66,64,61,79,52,25,29.93,29.89,29.83,10,10,7,16,10,21,0.00,0,,184
2013-9-8,103,87,71,64,62,58,73,48,23,29.88,29.83,29.78,10,10,9,18,8,23,0.00,0,,185
2013-9-9,98,84,69,62,58,54,68,46,24,29.87,29.84,29.80,10,10,10,29,13,37,0.00,0,,184
2013-9-10,98,86,73,63,60,57,64,47,29,30.01,29.94,29.87,10,10,10,26,14,31,0.00,1,,188
2013-9-11,96,83,70,70,63,58,93,65,36,30.11,30.05,29.98,10,10,7,24,8,30,0.19,3,Rain-Thunderstorm,229
2013-9-12,79,75,70,70,68,61,97,82,67,30.20,30.14,30.10,10,9,2,13,4,31,0.61,7,Rain,15
2013-9-13,75,69,63,58,51,49,63,52,41,30.18,30.12,30.04,10,10,10,13,6,17,0.00,3,,82
2013-9-14,84,71,58,62,56,52,80,61,42,30.04,29.96,29.86,10,10,10,21,9,25,0.00,1,,147
2013-9-15,85,75,64,67,62,57,78,65,51,30.18,29.98,29.86,10,10,10,25,11,31,T,4,Rain,62
2013-9-16,64,62,60,61,59,57,97,88,78,30.24,30.18,30.14,10,5,1,16,8,21,0.06,8,Rain,66
2013-9-17,84,74,63,69,65,62,100,79,58,30.15,30.04,29.86,10,4,0,23,12,28,0.35,7,Fog-Rain-Thunderstorm,151
2013-9-18,95,83,71,67,65,61,84,60,36,29.88,29.78,29.69,10,10,9,31,17,40,0.00,0,,184
2013-9-19,90,78,65,65,62,54,73,59,44,30.01,29.82,29.75,10,10,10,26,14,32,T,1,,242
2013-9-20,77,66,54,52,49,44,86,60,33,30.14,30.05,29.99,10,10,10,16,7,20,0.00,0,,347
2013-9-21,86,68,49,52,49,43,89,56,23,30.02,29.95,29.85,10,10,10,15,5,20,0.00,0,,187
2013-9-22,83,69,55,53,49,45,86,57,28,29.91,29.84,29.76,10,10,10,25,13,31,0.00,0,,167
2013-9-23,83,69,55,51,49,48,77,54,31,29.78,29.71,29.62,10,10,6,33,17,40,0.00,2,,163
2013-9-24,78,68,58,56,54,52,80,62,43,29.91,29.84,29.73,10,10,10,29,13,36,0.00,2,,313
2013-9-25,86,69,51,57,53,49,93,62,30,29.93,29.82,29.70,10,9,6,21,9,24,0.00,0,Rain,144
2013-9-26,96,81,65,60,56,54,78,51,24,29.73,29.69,29.65,10,10,10,32,21,41,0.00,0,,158
2013-9-27,91,81,71,62,58,54,54,46,37,29.80,29.75,29.70,10,10,10,31,19,39,T,0,,169
2013-9-28,78,63,47,67,52,42,83,59,35,30.11,29.91,29.67,10,9,2,25,13,35,0.42,3,Rain-Thunderstorm,292
2013-9-29,78,61,44,48,42,37,92,58,23,30.11,30.02,29.91,10,10,10,15,6,18,0.00,0,,172
2013-9-30,84,66,47,52,48,44,89,59,28,29.90,29.83,29.76,10,10,10,20,9,25,0.00,0,,170